logo
Rechercher aéroport 
image banner adimage banner adimage banner ad
image banner ad

EPMR - Miroslawice

Situé à , Poland

ICAO - EPMR, IATA -

Données fournies par Airmate  

Information générale

Coordonnées: N50°57'33" E16°46'13"
Élévation : 504 feet MSL.
Variation magnétique : 5.0000° East
Évalué:
Voir évaluations:
[VIEW]
Voir autres Aéroports à Lower Silesia

Données opérationnelles

Special qualification required
Heure actuelle UTC:
Heure actuelle locale:
Météo à : EPWR - Wroclaw/Strachowice ( 18 km )
METAR: EPWR 141630Z 13009KT 9999 FEW058TCU 26/16 Q1013
TAF: TAF EPWR 141430Z 1415/1515 14010KT CAVOK TEMPO 1415/1420 SCT040TCU PROB30 TEMPO 1415/1418 VRB15G35KT 2000 +TSRA BKN040CB BECMG 1420/1423 VRB02KT TEMPO 1422/1505 3000 BR PROB30 TEMPO 1422/1504 0500 FG
Voir NOTAMs / SUP AIP / TFR affectant cet aéroport [VIEW]
Fréquences de communication: [VIEW]

Pistes:

Identifiant RWYQFULongueur (ft)Largeur (ft)SurfaceLDA (ft)
09R93°1690164GRASS1690
27L273°1690164GRASS1690
17175°2774164GRASS2772
35355°2774164GRASS2411
09L93°1870164GRASS1870
27R273°1870164GRASS1870

Coordonnées de l'aéroport

Adresse: Poland

Vue satellite de EPMR